createdAt,value
2018-02-04T00:03:34.602Z,0.90
2018-02-04T00:08:38.051Z,0.90
2018-02-04T00:13:41.268Z,0.80
2018-02-04T00:18:43.938Z,0.80
2018-02-04T00:23:46.693Z,0.80
2018-02-04T00:28:49.444Z,0.70
2018-02-04T00:33:52.696Z,0.60
2018-02-04T00:38:55.349Z,0.60
2018-02-04T00:43:58.769Z,0.70
2018-02-04T00:49:02.221Z,0.30
2018-02-04T00:54:06.014Z,0.30
2018-02-04T00:59:08.738Z,0.40
2018-02-04T01:04:11.996Z,0.30
2018-02-04T01:09:14.615Z,0.20
2018-02-04T01:14:19.751Z,0.00
2018-02-04T01:19:22.366Z,0.00
2018-02-04T01:24:26.011Z,0.10
2018-02-04T01:29:28.805Z,0.10
2018-02-04T01:34:33.240Z,0.10
2018-02-04T01:39:36.684Z,0.00
2018-02-04T01:44:39.594Z,0.00
2018-02-04T01:49:42.240Z,0.00
2018-02-04T01:54:45.590Z,-0.10
2018-02-04T01:59:48.205Z,-0.10
2018-02-04T02:04:51.039Z,-0.20
2018-02-04T02:09:53.664Z,-0.30
2018-02-04T02:14:56.616Z,-0.20
2018-02-04T02:19:59.281Z,-0.30
2018-02-04T02:25:03.524Z,-0.40
2018-02-04T02:30:06.916Z,-0.50
2018-02-04T02:35:10.486Z,-0.50
2018-02-04T02:40:13.089Z,-0.50
2018-02-04T02:45:15.955Z,-0.60
2018-02-04T02:50:19.344Z,-0.70
2018-02-04T02:55:22.511Z,-0.80
2018-02-04T03:00:25.131Z,-0.70
2018-02-04T03:05:27.912Z,-0.60
2018-02-04T03:10:30.572Z,-0.70
2018-02-04T03:15:33.362Z,-0.50
2018-02-04T03:20:35.950Z,-0.50
2018-02-04T03:25:38.615Z,-0.40
2018-02-04T03:30:41.251Z,-0.30
2018-02-04T03:35:44.419Z,-0.40
2018-02-04T03:40:47.052Z,-0.50
2018-02-04T03:45:49.837Z,-0.70
2018-02-04T03:50:52.431Z,-0.70
2018-02-04T03:55:55.770Z,-0.70
2018-02-04T04:00:58.400Z,-0.80
2018-02-04T04:06:01.960Z,-0.70
2018-02-04T04:11:04.560Z,-0.80
2018-02-04T04:16:07.313Z,-0.80
2018-02-04T04:21:10.010Z,-0.90
2018-02-04T04:26:12.980Z,-0.90
2018-02-04T04:31:15.593Z,-1.10
2018-02-04T04:36:18.561Z,-1.10
2018-02-04T04:41:21.191Z,-1.20
2018-02-04T04:46:24.711Z,-1.10
2018-02-04T04:51:27.355Z,-1.10
2018-02-04T04:56:30.855Z,-0.90
2018-02-04T05:01:33.493Z,-0.90
2018-02-04T05:06:36.667Z,-0.90
2018-02-04T05:11:39.317Z,-0.80
2018-02-04T05:16:42.103Z,-0.70
2018-02-04T05:21:44.698Z,-0.70
2018-02-04T05:26:47.820Z,-0.80
2018-02-04T05:31:50.434Z,-0.90
2018-02-04T05:36:53.193Z,-0.90
2018-02-04T05:41:56.594Z,-0.80
2018-02-04T05:47:00.194Z,-0.80
2018-02-04T05:52:02.825Z,-0.90
2018-02-04T05:57:06.271Z,-0.80
2018-02-04T06:02:08.920Z,-0.90
2018-02-04T06:07:12.460Z,-0.70
2018-02-04T06:12:15.080Z,-0.80
2018-02-04T06:17:18.475Z,-0.80
2018-02-04T06:22:21.140Z,-0.70
2018-02-04T06:27:24.527Z,-0.80
2018-02-04T06:32:27.156Z,-0.80
2018-02-04T06:37:30.471Z,-0.80
2018-02-04T06:42:33.122Z,-0.90
2018-02-04T06:47:36.672Z,-0.80
2018-02-04T06:52:39.268Z,-0.80
2018-02-04T06:57:42.620Z,-0.70
2018-02-04T07:02:45.269Z,-0.90
2018-02-04T07:07:48.730Z,-0.70
2018-02-04T07:12:51.375Z,-0.80
2018-02-04T07:17:54.960Z,-0.70
2018-02-04T07:22:57.588Z,-0.60
2018-02-04T07:28:01.397Z,-0.60
2018-02-04T07:33:04.029Z,-0.60
2018-02-04T07:38:07.099Z,-0.50
2018-02-04T07:43:09.738Z,-0.40
2018-02-04T07:48:13.315Z,-0.20
2018-02-04T07:53:15.946Z,-0.40
2018-02-04T07:58:19.363Z,-0.40
2018-02-04T08:03:21.995Z,-0.20
2018-02-04T08:08:25.169Z,-0.60
2018-02-04T08:13:28.568Z,-0.70
2018-02-04T08:18:31.853Z,-0.70
2018-02-04T08:23:34.486Z,-0.50
2018-02-04T08:28:38.129Z,-0.40
2018-02-04T08:33:40.762Z,-0.40
2018-02-04T08:38:43.868Z,-0.30
2018-02-04T08:43:46.506Z,-0.30
2018-02-04T08:48:49.172Z,0.10
2018-02-04T08:53:51.836Z,0.00
2018-02-04T08:58:55.027Z,-0.10
2018-02-04T09:03:58.427Z,-0.30
2018-02-04T09:09:01.409Z,-0.30
2018-02-04T09:14:04.062Z,0.30
2018-02-04T09:19:07.528Z,1.20
2018-02-04T09:24:10.159Z,1.10
2018-02-04T09:29:13.883Z,2.80
2018-02-04T09:34:17.278Z,2.60
2018-02-04T09:39:20.644Z,2.60
2018-02-04T09:44:23.249Z,2.40
2018-02-04T09:49:26.066Z,1.40
2018-02-04T09:54:28.675Z,1.10
2018-02-04T09:59:31.833Z,0.80
2018-02-04T10:04:35.232Z,5.50
2018-02-04T10:09:37.894Z,5.50
2018-02-04T10:14:40.535Z,6.00
2018-02-04T10:19:43.698Z,4.40
2018-02-04T10:24:46.473Z,5.10
2018-02-04T10:29:49.223Z,5.40
2018-02-04T10:34:51.836Z,7.50
2018-02-04T10:39:54.683Z,6.90
2018-02-04T10:44:57.443Z,7.50
2018-02-04T10:50:00.967Z,8.20
2018-02-04T10:55:03.811Z,6.40
2018-02-04T11:00:07.000Z,5.10
2018-02-04T11:05:10.667Z,3.50
2018-02-04T11:10:14.038Z,3.40
2018-02-04T11:15:17.583Z,7.40
2018-02-04T11:20:20.661Z,7.40
2018-02-04T11:25:23.656Z,7.00
2018-02-04T11:30:27.205Z,6.30
2018-02-04T11:35:30.717Z,6.30
2018-02-04T11:40:34.676Z,6.40
2018-02-04T11:45:37.272Z,6.30
2018-02-04T11:50:40.375Z,6.80
2018-02-04T11:55:43.091Z,8.20
2018-02-04T12:00:45.874Z,7.60
2018-02-04T12:05:48.609Z,6.60
2018-02-04T12:10:52.399Z,7.90
2018-02-04T12:15:55.936Z,7.80
2018-02-04T12:20:59.235Z,7.80
2018-02-04T12:26:02.264Z,7.90
2018-02-04T12:31:05.599Z,8.30
2018-02-04T12:36:08.457Z,7.90
2018-02-04T12:41:11.402Z,8.60
2018-02-04T12:46:14.146Z,9.40
2018-02-04T12:51:17.150Z,9.80
2018-02-04T12:56:20.883Z,10.90
2018-02-04T13:01:24.723Z,10.50
2018-02-04T13:06:27.352Z,10.40
2018-02-04T13:11:30.237Z,11.90
2018-02-04T13:16:32.820Z,8.20
2018-02-04T13:21:37.059Z,8.90
2018-02-04T13:26:39.700Z,8.90
2018-02-04T13:31:43.442Z,9.20
2018-02-04T13:36:46.034Z,8.60
2018-02-04T13:41:49.126Z,8.30
2018-02-04T13:46:51.735Z,8.20
2018-02-04T13:51:55.311Z,7.80
2018-02-04T13:56:58.703Z,9.00
2018-02-04T14:02:01.736Z,9.00
2018-02-04T14:07:04.323Z,8.50
2018-02-04T14:12:08.554Z,8.60
2018-02-04T14:17:11.925Z,6.90
2018-02-04T14:22:14.978Z,6.90
2018-02-04T14:27:18.358Z,7.50
2018-02-04T14:32:21.325Z,7.40
2018-02-04T14:37:23.966Z,6.90
2018-02-04T14:42:26.733Z,7.90
2018-02-04T14:47:29.382Z,7.30
2018-02-04T14:52:32.647Z,7.00
2018-02-04T14:57:35.273Z,5.30
2018-02-04T15:02:38.247Z,4.40
2018-02-04T15:07:40.853Z,4.00
2018-02-04T15:12:43.741Z,3.90
2018-02-04T15:17:47.196Z,2.90
2018-02-04T15:22:49.833Z,2.80
2018-02-04T15:27:53.329Z,2.70
2018-02-04T15:32:56.714Z,2.70
2018-02-04T15:37:59.342Z,2.80
2018-02-04T15:43:02.914Z,2.90
2018-02-04T15:48:05.619Z,2.60
2018-02-04T15:53:08.344Z,2.60
2018-02-04T15:58:11.075Z,2.30
2018-02-04T16:03:13.763Z,2.20
2018-02-04T16:08:16.435Z,2.30
2018-02-04T16:13:19.626Z,2.20
2018-02-04T16:18:22.286Z,2.20
2018-02-04T16:23:25.745Z,1.70
2018-02-04T16:28:28.478Z,1.70
2018-02-04T16:33:32.115Z,1.90
2018-02-04T16:38:34.875Z,1.50
2018-02-04T16:43:39.311Z,1.20
2018-02-04T16:48:41.927Z,1.30
2018-02-04T16:53:45.355Z,1.20
2018-02-04T16:58:48.185Z,1.20
2018-02-04T17:03:51.263Z,1.30
2018-02-04T17:08:54.515Z,1.30
2018-02-04T17:13:58.329Z,1.40
2018-02-04T17:19:00.938Z,1.40
2018-02-04T17:24:03.966Z,1.70
2018-02-04T17:29:07.345Z,1.50
2018-02-04T17:34:10.294Z,1.40
2018-02-04T17:39:13.146Z,1.50
2018-02-04T17:44:16.463Z,1.70
2018-02-04T17:49:19.199Z,1.70
2018-02-04T17:54:22.599Z,1.70
2018-02-04T17:59:25.252Z,1.80
2018-02-04T18:04:28.726Z,1.80
2018-02-04T18:09:31.333Z,1.70
2018-02-04T18:14:35.655Z,1.90
2018-02-04T18:19:39.061Z,1.80
2018-02-04T18:24:42.094Z,1.80
2018-02-04T18:29:44.824Z,2.10
2018-02-04T18:34:48.573Z,1.80
2018-02-04T18:39:51.252Z,1.80
2018-02-04T18:44:54.891Z,1.70
2018-02-04T18:49:57.566Z,1.70
2018-02-04T18:55:01.245Z,1.50
2018-02-04T19:00:04.095Z,1.50
2018-02-04T19:05:07.971Z,1.40
2018-02-04T19:10:10.641Z,1.40
2018-02-04T19:15:14.300Z,1.30
2018-02-04T19:20:17.881Z,1.40
2018-02-04T19:25:20.941Z,1.40
2018-02-04T19:30:24.465Z,1.20
2018-02-04T19:35:27.597Z,1.20
2018-02-04T19:40:31.131Z,1.30
2018-02-04T19:45:35.220Z,1.30
2018-02-04T19:50:38.640Z,1.40
2018-02-04T19:55:42.020Z,1.30
2018-02-04T20:00:44.834Z,1.40
2018-02-04T20:05:49.668Z,1.40
2018-02-04T20:10:52.277Z,1.40
2018-02-04T20:15:55.160Z,1.50
2018-02-04T20:20:58.000Z,1.20
2018-02-04T20:26:00.773Z,1.30
2018-02-04T20:31:03.486Z,1.20
2018-02-04T20:36:06.492Z,1.20
2018-02-04T20:41:09.162Z,1.30
2018-02-04T20:46:12.815Z,1.40
2018-02-04T20:51:15.485Z,1.30
2018-02-04T20:56:18.570Z,1.10
2018-02-04T21:01:21.287Z,1.30
2018-02-04T21:06:25.339Z,1.30
2018-02-04T21:11:28.026Z,1.30
2018-02-04T21:16:31.821Z,1.40
2018-02-04T21:21:34.515Z,1.40
2018-02-04T21:26:37.965Z,1.30
2018-02-04T21:31:40.608Z,1.30
2018-02-04T21:36:44.014Z,1.20
2018-02-04T21:41:46.674Z,1.20
2018-02-04T21:46:50.819Z,1.40
2018-02-04T21:51:54.215Z,1.40
2018-02-04T21:56:58.701Z,1.40
2018-02-04T22:02:01.413Z,1.40
2018-02-04T22:07:04.366Z,1.40
2018-02-04T22:12:07.827Z,1.10
2018-02-04T22:17:10.930Z,1.10
2018-02-04T22:22:13.648Z,1.20
2018-02-04T22:27:19.413Z,1.20
2018-02-04T22:32:22.452Z,1.10
2018-02-04T22:37:26.050Z,1.00
2018-02-04T22:42:28.716Z,1.00
2018-02-04T22:47:31.425Z,1.10
2018-02-04T22:52:34.127Z,1.10
2018-02-04T22:57:37.581Z,1.10
2018-02-04T23:02:40.470Z,1.00
2018-02-04T23:07:43.858Z,1.10
2018-02-04T23:12:46.505Z,1.10
2018-02-04T23:17:49.180Z,1.10
2018-02-04T23:22:51.790Z,1.10
2018-02-04T23:27:54.698Z,1.10
2018-02-04T23:32:57.372Z,0.90
2018-02-04T23:38:00.779Z,1.10
2018-02-04T23:43:03.397Z,0.90
2018-02-04T23:48:06.966Z,1.00
2018-02-04T23:53:09.595Z,0.80
2018-02-04T23:58:12.322Z,0.80
